Flight Track Log - Related Links

Times and Time Zones

All times are in EDT time to prevent confusion due to time zone crossing. See the LBQ792 flight status page for this flight to view local times or setup timezone preferences in your user account.

Time Position Orientation Groundspeed Altitude Reporting Facility
EDT Latitude Longitude Course Direction KTS MPH feet Rate Location/Type
Thu 08:14:34 PM 40.3764 -76.0619 288° West 188 216 5,400  Level New York Center
Thu 08:15:33 PM 40.3969 -76.1153 297° West 188 216 6,600 1,311 Climbing New York Center
Thu 08:16:33 PM 40.4186 -76.1878 291° West 193 222 8,000 1,339 Climbing New York Center
Thu 08:17:00 PM 40.4971 -76.3462 281° West  Level FlightAware Approximate
Thu 08:17:34 PM 40.4425 -76.2525 296° West 198 228 9,300  Level New York Center
Thu 08:18:00 PM 40.5167 -76.4374 270° West  Level FlightAware Approximate
Thu 08:18:34 PM 40.4897 -76.2725 342° North 169 194 10,700  Level New York Center
Thu 08:19:00 PM 40.5363 -76.5284 288° West  Level FlightAware Approximate
Thu 08:19:35 PM 40.5325 -76.2897 343° North 177 204 11,800  Level New York Center
Thu 08:20:35 PM 40.5983 -76.3114 346° North 204 235 12,000 102 Climbing New York Center
Thu 08:21:33 PM 40.6556 -76.3353 342° North 223 257 12,000  Level New York Center
Thu 08:22:34 PM 40.7314 -76.3633 344° North 241 277 12,000  Level New York Center
Thu 08:23:35 PM 40.7928 -76.3847 345° North 247 284 12,000  Level New York Center
Thu 08:24:33 PM 40.8686 -76.4128 344° North 252 290 12,000  Level New York Center
Thu 08:25:34 PM 40.9300 -76.4344 345° North 252 290 12,000  Level New York Center
Thu 08:26:35 PM 41.0061 -76.4572 347° North 257 296 12,000  Level New York Center
Thu 08:27:36 PM 41.0758 -76.4825 345° North 257 296 12,000  Level New York Center
Thu 08:28:33 PM 41.1369 -76.5069 343° North 257 296 12,000  Level New York Center
Thu 08:29:34 PM 41.2044 -76.5319 344° North 257 296 12,000  Level New York Center
Thu 08:30:35 PM 41.2803 -76.5606 344° North 257 296 12,000  Level New York Center
Thu 08:31:35 PM 41.3497 -76.5858 345° North 257 296 12,000  Level New York Center
Thu 08:32:33 PM 41.4172 -76.6108 344° North 257 296 12,000  Level New York Center
Thu 08:33:33 PM 41.4786 -76.6356 343° North 257 296 12,000  Level New York Center
Thu 08:34:35 PM 41.5481 -76.6611 345° North 257 296 12,000 -295 Level New York Center
Thu 08:35:35 PM 41.6258 -76.6903 344° North 257 296 11,400 -864 Descending New York Center
Thu 08:36:33 PM 41.7014 -76.7192 344° North 269 310 10,300 -1,210 Descending New York Center
Thu 08:37:34 PM 41.7792 -76.7483 344° North 281 323 9,000 -1,279 Descending New York Center

Login

Don't have an account? Register now (free) for customized features, flight alerts, and more!